Tuesday, January 17, 2017, 3:52 AM EST

KDYL, Doylestown Airport

Location: Doylestown, PA, United States Lat: 40.333
Local Time: 3:52 AM EST ( 8:52 GMT) Lon: -75.117
Time Zone: US/Eastern Elev: 393 ft

Show me the last for .
Show Decoded

2017-01-17 02:54 METAR KDYL 170754Z AUTO 23003KT 10SM OVC025 03/M03 A3025 RMK AO2 SLP250
                 T00331033 =
2017-01-17 01:54 METAR KDYL 170654Z AUTO 00000KT 10SM OVC028 03/M03 A3025 RMK AO2 SLP249
                 T00331033 =
2017-01-17 00:54 METAR KDYL 170554Z AUTO 00000KT 10SM OVC038 03/M03 A3027 RMK AO2 SLP256 60000
                 T00331033 10044 20028 58017 =
2017-01-16 23:54 METAR KDYL 170454Z AUTO 22003KT 10SM SCT027 OVC042 03/M03 A3029 RMK AO2 SLP263
                 T00331033 400611056 =
2017-01-16 23:17 METAR KDYL 170417Z AUTO 00000KT 10SM BKN027 BKN032 OVC045 03/M03 A3031 RMK AO2
                 T00331033 =
2017-01-16 22:54 METAR KDYL 170354Z AUTO 24003KT 10SM FEW031 OVC046 03/M03 A3032 RMK AO2 RAE0257
                 SLP272 P0000 T00331033 =
2017-01-16 21:54 METAR KDYL 170254Z AUTO 25003KT 10SM -RA OVC055 03/M03 A3032 RMK AO2 RAB42
                 SLP274 P0000 60000 T00331033 58005 =
2017-01-16 21:10 METAR KDYL 170210Z AUTO 22005KT 10SM SCT023 OVC065 04/M05 A3032 RMK AO2
                 T00391050 =
2017-01-16 20:54 METAR KDYL 170154Z AUTO 24004KT 10SM BKN023 OVC075 04/M05 A3033 RMK AO2 SLP277
                 T00391050 =
2017-01-16 20:44 METAR KDYL 170144Z AUTO 24004KT 10SM BKN023 OVC080 04/M05 A3033 RMK AO2
                 T00391050 =
2017-01-16 19:54 METAR KDYL 170054Z AUTO 24005KT 10SM OVC085 04/M04 A3033 RMK AO2 SLP279
                 T00441044 =
2017-01-16 19:20 METAR KDYL 170020Z AUTO 21004KT 10SM SCT028 OVC085 04/M04 A3032 RMK AO2
                 T00441039 =
2017-01-16 18:54 METAR KDYL 162354Z AUTO 22003KT 10SM BKN028 OVC090 04/M04 A3033 RMK AO2 SLP280
                 T00441044 10061 20044 58006 =
2017-01-16 17:54 METAR KDYL 162254Z AUTO 00000KT 10SM OVC021 04/M04 A3034 RMK AO2 SLP283
                 T00441044 =
2017-01-16 16:54 METAR KDYL 162154Z AUTO 00000KT 10SM BKN024 BKN110 05/M04 A3035 RMK AO2 SLP284
                 T00501044 =
2017-01-16 15:54 METAR KDYL 162054Z AUTO 24003KT 10SM BKN024 05/M04 A3035 RMK AO2 SLP285
                 T00501044 56005 =
2017-01-16 14:54 METAR KDYL 161954Z AUTO 24003KT 10SM CLR 06/M05 A3036 RMK AO2 SLP288 T00561050 =
2017-01-16 13:54 METAR KDYL 161854Z AUTO 00000KT 10SM CLR 06/M05 A3037 RMK AO2 SLP291 T00561050 =
2017-01-16 12:54 METAR KDYL 161754Z AUTO 21004KT 10SM CLR 05/M06 A3038 RMK AO2 SLP296 T00501056
                 10056 21056 58026 =
2017-01-16 11:54 METAR KDYL 161654Z AUTO 27003KT 10SM CLR 04/M06 A3042 RMK AO2 SLP309 T00391061 =
2017-01-16 10:54 METAR KDYL 161554Z AUTO 21003KT 10SM CLR 02/M06 A3045 RMK AO2 SLP319 T00221061 =
2017-01-16 09:54 METAR KDYL 161454Z AUTO 00000KT 10SM CLR 00/M06 A3046 RMK AO2 SLP324 T00001061
                 51007 =
2017-01-16 08:54 METAR KDYL 161354Z AUTO 00000KT 10SM CLR M02/M06 A3046 RMK AO2 SLP322 T10221061
                 =
2017-01-16 07:54 METAR KDYL 161254Z AUTO 00000KT 10SM CLR M06/M08 A3045 RMK AO2 SLP320 T10561078
                 =
2017-01-16 06:54 METAR KDYL 161154Z AUTO 00000KT 10SM CLR M04/M08 A3044 RMK AO2 SLP318 T10441078
                 11033 21056 53003 =
2017-01-16 05:54 METAR KDYL 161054Z AUTO 00000KT 10SM CLR M04/M08 A3043 RMK AO2 SLP313 T10441078
                 =
2017-01-16 04:54 METAR KDYL 160954Z AUTO 04003KT 10SM CLR M03/M08 A3043 RMK AO2 SLP311 T10331078
                 =
2017-01-16 03:54 METAR KDYL 160854Z AUTO 03003KT 10SM CLR M03/M08 A3043 RMK AO2 SLP312 T10331078
                 50005 =

Support USWX by starting your Amazon purchase here.